createdAt,value
2022-12-18T00:02:12.772Z,101820.00
2022-12-18T00:04:45.631Z,101817.80
2022-12-18T00:07:18.431Z,101820.80
2022-12-18T00:09:51.869Z,101822.60
2022-12-18T00:12:24.671Z,101821.60
2022-12-18T00:14:57.655Z,101823.20
2022-12-18T00:17:30.609Z,101829.00
2022-12-18T00:20:03.431Z,101829.20
2022-12-18T00:22:36.348Z,101832.60
2022-12-18T00:25:10.460Z,101832.00
2022-12-18T00:27:43.341Z,101834.00
2022-12-18T00:30:17.226Z,101835.00
2022-12-18T00:32:50.766Z,101833.00
2022-12-18T00:35:24.152Z,101834.80
2022-12-18T00:37:56.958Z,101845.40
2022-12-18T00:40:29.870Z,101846.60
2022-12-18T00:43:02.941Z,101856.60
2022-12-18T00:45:36.090Z,101857.60
2022-12-18T00:48:09.575Z,101859.40
2022-12-18T00:50:42.479Z,101860.20
2022-12-18T00:53:15.350Z,101865.00
2022-12-18T00:55:49.103Z,101875.60
2022-12-18T00:58:22.060Z,101872.20
2022-12-18T01:00:55.630Z,101881.40
2022-12-18T01:03:28.427Z,101892.40
2022-12-18T01:06:01.270Z,101895.80
2022-12-18T01:08:34.262Z,101895.60
2022-12-18T01:11:11.737Z,101904.80
2022-12-18T01:13:45.118Z,101905.00
2022-12-18T01:16:19.442Z,101906.80
2022-12-18T01:18:56.042Z,101908.40
2022-12-18T01:21:29.083Z,101913.80
2022-12-18T01:24:02.120Z,101913.40
2022-12-18T01:26:35.936Z,101917.40
2022-12-18T01:29:08.822Z,101917.80
2022-12-18T01:31:41.711Z,101918.20
2022-12-18T01:34:14.627Z,101917.20
2022-12-18T01:36:48.176Z,101918.00
2022-12-18T01:39:21.232Z,101923.80
2022-12-18T01:42:06.062Z,101924.60
2022-12-18T01:45:00.025Z,101925.20
2022-12-18T01:47:45.679Z,101925.80
2022-12-18T01:50:23.564Z,101927.00
2022-12-18T01:53:00.393Z,101927.20
2022-12-18T01:55:39.031Z,101920.20
2022-12-18T01:58:12.055Z,101924.40
2022-12-18T02:00:45.705Z,101930.40
2022-12-18T02:03:19.252Z,101932.40
2022-12-18T02:06:02.242Z,101937.40
2022-12-18T02:08:41.118Z,101932.60
2022-12-18T02:11:23.540Z,101929.60
2022-12-18T02:14:06.503Z,101925.80
2022-12-18T02:16:47.383Z,101932.60
2022-12-18T02:19:46.897Z,101932.00
2022-12-18T02:22:35.619Z,101936.60
2022-12-18T02:25:31.133Z,101942.00
2022-12-18T02:28:08.676Z,101945.00
2022-12-18T02:30:44.170Z,101945.80
2022-12-18T02:33:18.311Z,101946.00
2022-12-18T02:35:53.010Z,101950.60
2022-12-18T02:38:27.692Z,101953.80
2022-12-18T02:41:01.784Z,101962.20
2022-12-18T02:43:35.360Z,101962.20
2022-12-18T02:46:37.523Z,101960.80
2022-12-18T02:49:29.014Z,101959.40
2022-12-18T02:52:12.763Z,101958.60
2022-12-18T02:54:59.855Z,101955.60
2022-12-18T02:57:45.137Z,101953.20
2022-12-18T03:00:22.473Z,101957.20
2022-12-18T03:03:02.928Z,101962.40
2022-12-18T03:05:43.234Z,101962.20
2022-12-18T03:08:23.085Z,101969.00
2022-12-18T03:11:00.991Z,101962.20
2022-12-18T03:13:39.851Z,101964.00
2022-12-18T03:16:17.741Z,101959.60
2022-12-18T03:18:54.584Z,101966.20
2022-12-18T03:21:36.429Z,101973.00
2022-12-18T03:24:12.594Z,101975.20
2022-12-18T03:26:50.408Z,101981.40
2022-12-18T03:29:27.774Z,101981.20
2022-12-18T03:32:14.859Z,101976.20
2022-12-18T03:34:52.575Z,101982.20
2022-12-18T03:37:26.563Z,101981.60
2022-12-18T03:39:59.495Z,101983.40
2022-12-18T03:42:43.470Z,101981.40
2022-12-18T03:45:25.938Z,101984.00
2022-12-18T03:48:07.291Z,101982.60
2022-12-18T03:50:51.118Z,101979.40
2022-12-18T03:53:35.586Z,101978.60
2022-12-18T03:56:10.321Z,101987.80
2022-12-18T03:58:47.978Z,101991.00
2022-12-18T04:01:32.510Z,101992.80
2022-12-18T04:04:07.266Z,102000.20
2022-12-18T04:06:43.517Z,101997.00
2022-12-18T04:09:17.316Z,101998.60
2022-12-18T04:11:53.890Z,102000.80
2022-12-18T04:14:26.780Z,102000.00
2022-12-18T04:17:01.772Z,101998.00
2022-12-18T04:19:36.658Z,102006.00
2022-12-18T04:22:11.530Z,102010.20
2022-12-18T04:24:48.915Z,102010.80
2022-12-18T04:27:28.382Z,102013.80
2022-12-18T04:30:02.104Z,102026.40
2022-12-18T04:32:37.301Z,102026.80
2022-12-18T04:35:13.126Z,102027.80
2022-12-18T04:37:47.939Z,102026.40
2022-12-18T04:40:22.555Z,102029.20
2022-12-18T04:42:55.642Z,102029.00
2022-12-18T04:45:28.569Z,102036.80
2022-12-18T04:48:02.537Z,102044.20
2022-12-18T04:50:35.520Z,102047.60
2022-12-18T04:53:08.374Z,102049.40
2022-12-18T04:55:41.437Z,102051.40
2022-12-18T04:58:14.270Z,102055.00
2022-12-18T05:00:47.226Z,102065.80
2022-12-18T05:03:20.204Z,102061.00
2022-12-18T05:05:56.206Z,102061.80
2022-12-18T05:08:29.133Z,102057.40
2022-12-18T05:11:07.419Z,102066.60
2022-12-18T05:13:41.649Z,102070.80
2022-12-18T05:16:15.563Z,102068.80
2022-12-18T05:18:48.595Z,102063.40
2022-12-18T05:21:21.605Z,102061.00
2022-12-18T05:23:54.457Z,102060.40
2022-12-18T05:26:27.590Z,102063.40
2022-12-18T05:29:00.478Z,102068.00
2022-12-18T05:31:39.512Z,102070.60
2022-12-18T05:34:12.786Z,102070.80
2022-12-18T05:36:48.959Z,102075.40
2022-12-18T05:39:21.832Z,102074.40
2022-12-18T05:41:54.664Z,102072.20
2022-12-18T05:44:27.920Z,102076.20
2022-12-18T05:47:01.025Z,102071.00
2022-12-18T05:49:34.060Z,102074.60
2022-12-18T05:52:07.148Z,102076.40
2022-12-18T05:54:40.243Z,102085.80
2022-12-18T05:57:13.204Z,102094.80
2022-12-18T05:59:46.109Z,102101.20
2022-12-18T06:02:19.077Z,102114.00
2022-12-18T06:04:52.644Z,102115.00
2022-12-18T06:07:25.482Z,102119.80
2022-12-18T06:09:58.306Z,102121.40
2022-12-18T06:12:31.257Z,102127.00
2022-12-18T06:15:04.685Z,102119.60
2022-12-18T06:17:38.182Z,102128.00
2022-12-18T06:20:12.982Z,102130.20
2022-12-18T06:22:45.874Z,102137.20
2022-12-18T06:25:19.029Z,102144.00
2022-12-18T06:27:52.524Z,102139.80
2022-12-18T06:30:25.756Z,102148.80
2022-12-18T06:32:58.912Z,102149.00
2022-12-18T06:35:31.984Z,102152.20
2022-12-18T06:38:06.815Z,102151.00
2022-12-18T06:40:41.328Z,102155.60
2022-12-18T06:43:14.478Z,102160.80
2022-12-18T06:45:50.683Z,102161.20
2022-12-18T06:48:23.996Z,102172.80
2022-12-18T06:50:57.055Z,102173.80
2022-12-18T06:53:30.732Z,102171.20
2022-12-18T06:56:10.662Z,102172.40
2022-12-18T06:58:44.018Z,102175.40
2022-12-18T07:01:17.534Z,102187.00
2022-12-18T07:03:54.151Z,102182.20
2022-12-18T07:06:28.899Z,102185.00
2022-12-18T07:09:01.872Z,102176.80
2022-12-18T07:11:36.179Z,102183.00
2022-12-18T07:14:08.996Z,102189.00
2022-12-18T07:16:41.988Z,102191.80
2022-12-18T07:19:15.579Z,102194.60
2022-12-18T07:21:48.394Z,102198.80
2022-12-18T07:24:21.522Z,102193.40
2022-12-18T07:26:54.461Z,102198.60
2022-12-18T07:29:27.560Z,102198.80
2022-12-18T07:32:00.473Z,102203.00
2022-12-18T07:34:33.454Z,102205.40
2022-12-18T07:37:06.828Z,102207.60
2022-12-18T07:39:39.746Z,102209.40
2022-12-18T07:42:30.250Z,102215.80
2022-12-18T07:45:02.105Z,102224.20
2022-12-18T07:47:39.773Z,102232.20
2022-12-18T07:50:14.467Z,102227.40
2022-12-18T07:52:47.768Z,102224.20
2022-12-18T07:55:20.707Z,102227.00
2022-12-18T07:57:59.214Z,102223.40
2022-12-18T08:00:34.654Z,102217.00
2022-12-18T08:03:07.727Z,102224.60
2022-12-18T08:05:40.715Z,102224.60
2022-12-18T08:08:13.669Z,102228.40
2022-12-18T08:10:46.485Z,102235.80
2022-12-18T08:13:19.293Z,102244.20
2022-12-18T08:15:59.795Z,102242.00
2022-12-18T08:18:31.411Z,102248.60
2022-12-18T08:21:14.092Z,102254.80
2022-12-18T08:23:47.425Z,102254.60
2022-12-18T08:26:22.203Z,102252.20
2022-12-18T08:28:56.166Z,102258.80
2022-12-18T08:31:31.662Z,102261.20
2022-12-18T08:34:04.904Z,102262.60
2022-12-18T08:36:37.929Z,102271.00
2022-12-18T08:39:10.913Z,102273.60
2022-12-18T08:41:43.788Z,102280.20
2022-12-18T08:44:34.175Z,102282.80
2022-12-18T08:47:07.704Z,102279.40
2022-12-18T08:49:40.849Z,102284.80
2022-12-18T08:52:13.813Z,102288.20
2022-12-18T08:54:46.771Z,102288.80
2022-12-18T08:57:19.639Z,102295.00
2022-12-18T08:59:52.640Z,102294.00
2022-12-18T09:02:25.629Z,102289.20
2022-12-18T09:04:58.670Z,102288.00
2022-12-18T09:07:31.764Z,102282.20
2022-12-18T09:10:05.105Z,102284.40
2022-12-18T09:12:37.935Z,102287.20
2022-12-18T09:15:12.757Z,102284.20
2022-12-18T09:17:45.975Z,102279.00
2022-12-18T09:20:19.204Z,102258.60
2022-12-18T09:22:51.996Z,102256.80
2022-12-18T09:25:24.969Z,102253.00
2022-12-18T09:27:58.221Z,102253.00
2022-12-18T09:30:31.395Z,102244.20
2022-12-18T09:33:05.383Z,102242.00
2022-12-18T09:35:41.868Z,102236.80
2022-12-18T09:38:17.482Z,102234.40
2022-12-18T09:40:53.507Z,102229.40
2022-12-18T09:43:31.280Z,102224.20
2022-12-18T09:46:08.875Z,102215.80
2022-12-18T09:48:46.614Z,102215.20
2022-12-18T09:51:25.477Z,102222.40
2022-12-18T09:54:08.064Z,102216.80
2022-12-18T09:56:45.498Z,102216.80
2022-12-18T09:59:27.773Z,102208.20
2022-12-18T10:02:01.799Z,102210.00
2022-12-18T10:04:35.660Z,102215.80
2022-12-18T10:07:16.454Z,102214.80
2022-12-18T10:10:00.112Z,102215.00
2022-12-18T10:12:40.944Z,102214.80
2022-12-18T10:15:22.241Z,102220.40
2022-12-18T10:18:04.885Z,102223.60
2022-12-18T10:20:46.358Z,102227.80
2022-12-18T10:23:27.826Z,102229.00
2022-12-18T10:26:06.991Z,102231.60
2022-12-18T10:28:43.393Z,102224.80
2022-12-18T10:31:24.303Z,102234.60
2022-12-18T10:33:58.799Z,102234.60
2022-12-18T10:36:31.905Z,102231.20
2022-12-18T10:39:19.607Z,102223.40
2022-12-18T10:42:14.340Z,102227.00
2022-12-18T10:44:47.671Z,102228.40
2022-12-18T10:47:22.608Z,102228.40
2022-12-18T10:49:57.872Z,102233.00
2022-12-18T10:52:31.363Z,102228.80
2022-12-18T10:55:07.020Z,102231.00
2022-12-18T10:57:42.745Z,102230.40
2022-12-18T11:00:34.358Z,102230.80
2022-12-18T11:03:36.789Z,102238.40
2022-12-18T11:06:13.072Z,102241.20
2022-12-18T11:08:59.168Z,102241.80
2022-12-18T11:11:33.768Z,102238.40
2022-12-18T11:14:15.154Z,102239.80
2022-12-18T11:17:24.320Z,102249.60
2022-12-18T11:19:45.200Z,102250.40
2022-12-18T11:22:29.123Z,102253.60
2022-12-18T11:25:32.310Z,102258.00
2022-12-18T11:28:04.518Z,102258.80
2022-12-18T11:30:39.751Z,102264.60
2022-12-18T11:33:19.292Z,102267.00
2022-12-18T11:35:55.903Z,102265.00
2022-12-18T11:38:32.459Z,102257.40
2022-12-18T11:41:16.182Z,102257.60
2022-12-18T11:43:56.428Z,102257.00
2022-12-18T11:46:36.082Z,102251.40
2022-12-18T11:49:14.094Z,102253.60
2022-12-18T11:51:56.795Z,102249.00
2022-12-18T11:54:29.628Z,102229.40
2022-12-18T11:57:12.760Z,102227.20
2022-12-18T11:59:58.184Z,102232.00
2022-12-18T12:02:59.590Z,102231.00
2022-12-18T12:05:51.182Z,102232.80
2022-12-18T12:08:33.974Z,102237.60
2022-12-18T12:11:18.010Z,102238.20
2022-12-18T12:14:04.584Z,102236.40
2022-12-18T12:16:46.339Z,102230.60
2022-12-18T12:19:38.056Z,102229.00
2022-12-18T12:22:20.731Z,102227.60
2022-12-18T12:25:16.396Z,102231.00
2022-12-18T12:28:02.103Z,102234.20
2022-12-18T12:30:43.498Z,102230.20
2022-12-18T12:33:30.903Z,102223.40
2022-12-18T12:36:15.695Z,102218.80
2022-12-18T12:38:53.031Z,102224.40
2022-12-18T12:41:46.957Z,102222.20
2022-12-18T12:44:26.554Z,102224.60
2022-12-18T12:47:08.135Z,102221.60
2022-12-18T12:49:48.728Z,102221.20
2022-12-18T12:52:31.728Z,102226.80
2022-12-18T12:55:13.075Z,102221.80
2022-12-18T12:57:53.762Z,102226.40
2022-12-18T13:00:27.638Z,102227.60
2022-12-18T13:03:10.597Z,102226.60
2022-12-18T13:05:52.422Z,102230.60
2022-12-18T13:12:00.028Z,102225.80
2022-12-18T13:14:37.876Z,102231.40
2022-12-18T13:17:33.713Z,102228.80
2022-12-18T13:20:17.132Z,102231.40
2022-12-18T13:22:52.566Z,102224.00
2022-12-18T13:25:41.783Z,102223.40
2022-12-18T13:28:18.970Z,102232.20
2022-12-18T13:31:02.249Z,102229.20
2022-12-18T13:34:25.634Z,102226.80
2022-12-18T13:37:20.922Z,102224.60
2022-12-18T13:39:54.154Z,102229.80
2022-12-18T13:43:03.353Z,102238.20
2022-12-18T13:46:01.398Z,102248.40
2022-12-18T13:48:38.352Z,102246.80
2022-12-18T13:51:13.188Z,102252.60
2022-12-18T13:53:51.974Z,102260.00
2022-12-18T13:56:30.057Z,102262.20
2022-12-18T13:59:25.165Z,102259.40
2022-12-18T14:02:02.531Z,102265.80
2022-12-18T14:04:38.613Z,102268.80
2022-12-18T14:07:15.880Z,102270.80
2022-12-18T14:10:01.949Z,102265.80
2022-12-18T14:13:03.325Z,102272.40
2022-12-18T14:15:41.770Z,102282.00
2022-12-18T14:18:25.783Z,102281.60
2022-12-18T14:21:01.537Z,102294.40
2022-12-18T14:23:39.449Z,102292.80
2022-12-18T14:26:30.618Z,102300.20
2022-12-18T14:29:22.610Z,102293.20
2022-12-18T14:32:18.699Z,102290.20
2022-12-18T14:34:54.823Z,102294.40
2022-12-18T14:37:29.493Z,102300.60
2022-12-18T14:40:10.947Z,102313.60
2022-12-18T14:42:44.592Z,102315.20
2022-12-18T14:45:44.622Z,102312.40
2022-12-18T14:48:23.378Z,102310.80
2022-12-18T14:51:07.488Z,102316.80
2022-12-18T14:53:50.495Z,102318.40
2022-12-18T14:56:29.384Z,102318.00
2022-12-18T14:59:05.584Z,102313.80
2022-12-18T15:01:41.783Z,102311.20
2022-12-18T15:04:33.125Z,102313.20
2022-12-18T15:07:19.367Z,102315.00
2022-12-18T15:10:14.962Z,102323.40
2022-12-18T15:12:50.408Z,102321.40
2022-12-18T15:15:50.949Z,102315.40
2022-12-18T15:18:24.139Z,102309.40
2022-12-18T15:21:00.262Z,102307.00
2022-12-18T15:23:38.533Z,102302.00
2022-12-18T15:26:13.837Z,102302.60
2022-12-18T15:28:52.085Z,102306.60
2022-12-18T15:31:37.068Z,102315.40
2022-12-18T15:34:23.676Z,102314.00
2022-12-18T15:36:57.432Z,102316.00
2022-12-18T15:39:30.635Z,102316.00
2022-12-18T15:42:21.891Z,102307.80
2022-12-18T15:44:54.887Z,102311.80
2022-12-18T15:47:28.018Z,102309.20
2022-12-18T15:50:01.465Z,102301.20
2022-12-18T15:52:38.957Z,102292.40
2022-12-18T15:55:35.925Z,102286.20
2022-12-18T15:58:10.671Z,102274.00
2022-12-18T16:00:44.327Z,102271.60
2022-12-18T16:03:19.757Z,102266.20
2022-12-18T16:05:52.909Z,102267.00
2022-12-18T16:08:27.020Z,102262.20
2022-12-18T16:11:00.460Z,102259.80
2022-12-18T16:13:33.365Z,102259.00
2022-12-18T16:16:06.601Z,102264.60
2022-12-18T16:18:39.562Z,102262.40
2022-12-18T16:21:13.620Z,102269.40
2022-12-18T16:23:46.571Z,102270.20
2022-12-18T16:26:19.462Z,102265.40
2022-12-18T16:28:52.548Z,102259.60
2022-12-18T16:31:25.543Z,102258.60
2022-12-18T16:34:23.662Z,102261.00
2022-12-18T16:37:05.592Z,102255.40
2022-12-18T16:39:40.682Z,102260.60
2022-12-18T16:42:20.310Z,102259.20
2022-12-18T16:44:54.260Z,102256.40
2022-12-18T16:47:27.747Z,102252.00
2022-12-18T16:50:00.814Z,102259.60
2022-12-18T16:52:33.716Z,102256.40
2022-12-18T16:55:07.659Z,102255.40
2022-12-18T16:57:41.436Z,102267.00
2022-12-18T17:00:18.681Z,102259.80
2022-12-18T17:02:51.920Z,102263.60
2022-12-18T17:05:25.294Z,102258.00
2022-12-18T17:07:58.525Z,102252.00
2022-12-18T17:10:31.858Z,102253.20
2022-12-18T17:13:04.967Z,102261.40
2022-12-18T17:15:40.795Z,102273.20
2022-12-18T17:18:13.861Z,102285.00
2022-12-18T17:20:46.777Z,102282.00
2022-12-18T17:23:20.082Z,102283.00
2022-12-18T17:25:55.774Z,102267.20
2022-12-18T17:28:30.217Z,102266.60
2022-12-18T17:31:04.310Z,102262.60
2022-12-18T17:33:38.827Z,102269.40
2022-12-18T17:36:14.475Z,102276.80
2022-12-18T17:38:53.999Z,102276.00
2022-12-18T17:41:28.090Z,102277.20
2022-12-18T17:44:04.456Z,102283.40
2022-12-18T17:46:39.436Z,102283.80
2022-12-18T17:49:13.372Z,102272.60
2022-12-18T17:51:46.463Z,102270.80
2022-12-18T17:54:19.693Z,102266.00
2022-12-18T17:56:52.596Z,102277.00
2022-12-18T17:59:25.615Z,102275.60
2022-12-18T18:01:58.641Z,102281.20
2022-12-18T18:04:32.148Z,102285.20
2022-12-18T18:07:05.096Z,102286.60
2022-12-18T18:09:38.168Z,102280.00
2022-12-18T18:12:28.774Z,102283.60
2022-12-18T18:15:01.776Z,102290.40
2022-12-18T18:17:35.463Z,102294.40
2022-12-18T18:20:10.261Z,102295.40
2022-12-18T18:22:43.145Z,102289.00
2022-12-18T18:25:17.125Z,102281.80
2022-12-18T18:27:51.168Z,102277.00
2022-12-18T18:30:24.112Z,102272.80
2022-12-18T18:32:56.963Z,102272.00
2022-12-18T18:35:53.406Z,102258.20
2022-12-18T18:38:23.319Z,102265.00
2022-12-18T18:41:04.790Z,102253.00
2022-12-18T18:43:38.198Z,102245.80
2022-12-18T18:46:15.162Z,102242.40
2022-12-18T18:48:48.195Z,102245.00
2022-12-18T18:51:22.712Z,102249.20
2022-12-18T18:53:56.714Z,102248.80
2022-12-18T18:56:56.183Z,102250.80
2022-12-18T18:59:31.700Z,102258.60
2022-12-18T19:02:04.220Z,102267.20
2022-12-18T19:04:41.224Z,102272.60
2022-12-18T19:07:28.119Z,102268.80
2022-12-18T19:10:04.559Z,102260.40
2022-12-18T19:12:56.302Z,102257.40
2022-12-18T19:15:29.629Z,102263.00
2022-12-18T19:18:02.559Z,102264.80
2022-12-18T19:20:36.315Z,102267.60
2022-12-18T19:23:09.221Z,102261.00
2022-12-18T19:25:43.622Z,102259.40
2022-12-18T19:28:21.851Z,102263.40
2022-12-18T19:30:59.420Z,102264.80
2022-12-18T19:33:43.108Z,102265.00
2022-12-18T19:36:22.405Z,102272.40
2022-12-18T19:38:57.573Z,102268.60
2022-12-18T19:41:32.891Z,102260.40
2022-12-18T19:44:08.191Z,102257.60
2022-12-18T19:46:42.522Z,102258.40
2022-12-18T19:49:18.036Z,102256.40
2022-12-18T19:51:51.342Z,102250.20
2022-12-18T19:54:24.257Z,102239.60
2022-12-18T19:56:59.275Z,102236.00
2022-12-18T19:59:32.283Z,102245.40
2022-12-18T20:02:05.423Z,102239.00
2022-12-18T20:04:38.277Z,102236.00
2022-12-18T20:07:11.612Z,102232.60
2022-12-18T20:09:44.696Z,102232.80
2022-12-18T20:12:18.606Z,102235.40
2022-12-18T20:14:51.553Z,102230.80
2022-12-18T20:17:24.413Z,102233.00
2022-12-18T20:19:57.435Z,102233.40
2022-12-18T20:22:30.855Z,102232.60
2022-12-18T20:25:03.698Z,102229.00
2022-12-18T20:27:36.894Z,102238.00
2022-12-18T20:30:13.156Z,102228.40
2022-12-18T20:32:45.977Z,102233.00
2022-12-18T20:35:19.245Z,102236.40
2022-12-18T20:37:52.882Z,102236.20
2022-12-18T20:40:27.424Z,102229.20
2022-12-18T20:43:00.439Z,102218.80
2022-12-18T20:45:34.066Z,102212.80
2022-12-18T20:48:07.396Z,102208.60
2022-12-18T20:50:40.552Z,102210.60
2022-12-18T20:53:13.557Z,102214.40
2022-12-18T20:55:49.585Z,102221.40
2022-12-18T20:58:22.610Z,102228.00
2022-12-18T21:01:05.673Z,102226.60
2022-12-18T21:03:38.997Z,102228.00
2022-12-18T21:06:12.978Z,102222.80
2022-12-18T21:08:46.763Z,102220.60
2022-12-18T21:11:58.081Z,102218.00
2022-12-18T21:14:32.261Z,102226.60
2022-12-18T21:17:05.121Z,102222.40
2022-12-18T21:19:38.330Z,102229.20
2022-12-18T21:22:12.905Z,102226.60
2022-12-18T21:24:45.841Z,102235.00
2022-12-18T21:27:18.991Z,102231.60
2022-12-18T21:29:52.665Z,102228.20
2022-12-18T21:32:25.697Z,102228.80
2022-12-18T21:35:02.169Z,102236.20
2022-12-18T21:37:35.092Z,102233.40
2022-12-18T21:40:10.126Z,102224.60
2022-12-18T21:43:00.902Z,102217.40
2022-12-18T21:45:33.834Z,102206.60
2022-12-18T21:48:07.367Z,102204.00
2022-12-18T21:50:40.291Z,102200.60
2022-12-18T21:53:13.243Z,102198.20
2022-12-18T21:55:46.177Z,102197.60
2022-12-18T21:58:19.188Z,102196.40
2022-12-18T22:00:52.633Z,102191.40
2022-12-18T22:03:25.661Z,102192.00
2022-12-18T22:06:09.484Z,102184.20
2022-12-18T22:08:43.615Z,102182.00
2022-12-18T22:11:17.575Z,102171.40
2022-12-18T22:13:51.963Z,102181.20
2022-12-18T22:16:25.045Z,102175.80
2022-12-18T22:18:58.056Z,102169.40
2022-12-18T22:21:33.040Z,102163.20
2022-12-18T22:24:08.986Z,102159.40
2022-12-18T22:26:42.409Z,102156.60
2022-12-18T22:29:36.736Z,102159.80
2022-12-18T22:32:13.098Z,102169.00
2022-12-18T22:34:48.023Z,102160.80
2022-12-18T22:37:20.966Z,102155.40
2022-12-18T22:39:53.876Z,102153.40
2022-12-18T22:42:27.120Z,102155.20
2022-12-18T22:45:00.575Z,102152.00
2022-12-18T22:47:33.724Z,102141.20
2022-12-18T22:50:07.297Z,102135.80
2022-12-18T22:52:40.332Z,102136.20
2022-12-18T22:55:13.890Z,102127.60
2022-12-18T22:57:48.668Z,102113.60
2022-12-18T23:00:24.187Z,102110.20
2022-12-18T23:03:00.984Z,102103.60
2022-12-18T23:05:35.506Z,102099.80
2022-12-18T23:08:08.628Z,102101.00
2022-12-18T23:10:43.027Z,102093.00
2022-12-18T23:13:15.870Z,102097.60
2022-12-18T23:15:48.975Z,102091.40
2022-12-18T23:18:22.273Z,102090.60
2022-12-18T23:20:55.502Z,102088.40
2022-12-18T23:23:29.519Z,102091.20
2022-12-18T23:26:10.078Z,102092.60
2022-12-18T23:28:43.743Z,102091.60
2022-12-18T23:31:19.449Z,102090.40
2022-12-18T23:33:54.071Z,102091.20
2022-12-18T23:36:28.239Z,102087.20
2022-12-18T23:39:04.101Z,102084.40
2022-12-18T23:41:37.325Z,102087.80
2022-12-18T23:44:11.097Z,102077.00
2022-12-18T23:46:44.134Z,102069.00
2022-12-18T23:49:17.066Z,102068.20
2022-12-18T23:51:50.103Z,102067.60
2022-12-18T23:54:32.877Z,102058.40
2022-12-18T23:57:06.856Z,102055.00
2022-12-18T23:59:39.813Z,102056.20
